1998 GEMMA (1998096S13071)


On this page: IBTrACS data - Map and Plots - Positions - Intensities - Original source data

Summary

Start Apr 6
End Apr 16
Basin SI
LMI 70 kt
Sources jtwc_sh
reunion
neumann
In WMO? Yes
Previous storm 1998 ZUMAN (SP)
Previous in basin 1998 FIONA (SI)
Concurrent storms 1998 ZUMAN (SP)
1998 GEMMA (SI)
1998 HSK3398 (SI)
1998 HSK3598 (SP)
Next in basin 1998 HSK3398 (SI)
Next storm 1998 HSK3398 (SI)

top of page IBTrACS Data: File Access

top of page HURSAT Data: File Access

Image of storm

top of page Plots:

Map of storm track will not appear if FTP is down
Time series of cyclone Maximum Sustained Wind will not appear if FTP is down
Time series of cyclone Minimum Central Pressure will not appear if FTP is down

top of page Track Data:Position

jtwc_sh reunion neumann
Date Lat Lon Lat Lon Lat Lon
1998-04-06 06:00:00 -12.6 71.0 -12.8 70.7 -12.8 70.7
1998-04-06 12:00:00 -12.9 71.0 -13.0 70.7 -13.0 70.7
1998-04-06 18:00:00 -13.2 71.1 -13.3 71.2 -13.3 71.2
1998-04-07 00:00:00 -13.4 71.2 -13.7 71.4 -13.7 71.4
1998-04-07 06:00:00 -13.6 71.4 -13.5 71.4 -13.5 71.4
1998-04-07 12:00:00 -13.6 71.6 -13.3 71.7 -13.3 71.7
1998-04-07 18:00:00 -13.6 71.8 -13.6 72.0 -13.6 72.0
1998-04-08 00:00:00 -13.8 71.9 -13.8 71.9 -13.8 71.9
1998-04-08 06:00:00 -14.0 71.9 -13.8 71.5 -13.8 71.5
1998-04-08 12:00:00 -14.2 71.9 -13.9 71.0 -13.9 71.0
1998-04-08 18:00:00 -14.4 71.9 -14.1 70.8 -14.1 70.8
1998-04-09 00:00:00 -14.7 72.0 -14.4 70.9 -14.4 70.9
1998-04-09 06:00:00 -14.9 72.1 -14.7 71.6 -14.7 71.6
1998-04-09 12:00:00 -15.1 72.4 -14.8 72.2 -14.8 72.2
1998-04-09 18:00:00 -15.3 72.7 -15.1 72.5 -15.1 72.5
1998-04-10 00:00:00 -15.4 73.2 -15.2 72.9 -15.2 72.9
1998-04-10 06:00:00 -15.5 73.8 -15.2 73.6 -15.2 73.6
1998-04-10 12:00:00 -15.5 74.4 -15.3 74.4 -15.3 74.4
1998-04-10 18:00:00 -15.5 75.0 -15.4 75.1 -15.4 75.1
1998-04-11 00:00:00 -15.3 75.7 -15.4 75.7 -15.4 75.7
1998-04-11 06:00:00 -14.9 76.5 -15.3 76.5 -15.3 76.5
1998-04-11 12:00:00 -14.6 77.0 -15.1 77.0 -15.1 77.0
1998-04-11 18:00:00 -14.6 77.1 -14.7 77.0 -14.7 77.0
1998-04-12 00:00:00 -14.6 77.2 -14.7 77.2 -14.7 77.2
1998-04-12 06:00:00 -14.6 77.3 -14.8 77.3 -14.8 77.3
jtwc_sh reunion neumann
1998-04-12 12:00:00 -14.6 77.4 -14.9 77.4 -14.9 77.4
1998-04-12 18:00:00 -14.6 77.5 -15.0 77.5 -15.0 77.5
1998-04-13 00:00:00 -14.6 77.6 -15.1 77.5 -15.1 77.5
1998-04-13 06:00:00 -14.5 77.7 -15.2 77.5 -15.2 77.5
1998-04-13 12:00:00 -14.4 77.7 -15.1 77.3 -15.1 77.3
1998-04-13 18:00:00 -14.3 77.4 -14.9 77.2 -14.9 77.2
1998-04-14 00:00:00 -14.2 77.1 -14.7 77.0 -14.7 77.0
1998-04-14 06:00:00 -14.2 76.8 -14.7 76.7 -14.7 76.7
1998-04-14 12:00:00 -14.2 76.3 -14.7 76.3 -14.7 76.3
1998-04-14 18:00:00 -14.3 75.8 -14.7 75.7 -14.7 75.7
1998-04-15 00:00:00 -14.3 75.5 -14.9 75.3 -14.9 75.3
1998-04-15 06:00:00 -15.5 74.7 -15.5 74.7
1998-04-15 12:00:00 -16.0 74.1 -16.0 74.1
1998-04-15 18:00:00 -16.1 73.8 -16.1 73.8
1998-04-16 00:00:00 -16.2 73.5 -16.2 73.5
1998-04-16 06:00:00 -16.3 73.0 -16.3 73.0
1998-04-16 12:00:00 -16.6 72.3 -16.6 72.3
1998-04-16 18:00:00 -17.2 71.1 -17.2 71.1

top of pageTrack Data:Intensity

jtwc_sh reunion neumann
Date Wind Pres Wind Pres Wind Pres
1998-04-06 06:00:00 25. 20. 1004. 20. 1004.
1998-04-06 12:00:00 30. 25. 1002. 25. 1002.
1998-04-06 18:00:00 30. 25. 1002. 25. 1002.
1998-04-07 00:00:00 30. 25. 1000. 30. 1000.
1998-04-07 06:00:00 30. 25. 1000. 30. 1000.
1998-04-07 12:00:00 30. 30. 996. 35. 996.
1998-04-07 18:00:00 30. 35. 992. 45. 992.
1998-04-08 00:00:00 45. 40. 988. 50. 988.
1998-04-08 06:00:00 45. 40. 988. 50. 988.
1998-04-08 12:00:00 50. 40. 988. 50. 988.
1998-04-08 18:00:00 50. 40. 988. 50. 988.
1998-04-09 00:00:00 55. 40. 988. 50. 988.
1998-04-09 06:00:00 55. 40. 988. 50. 988.
1998-04-09 12:00:00 60. 45. 985. 55. 985.
1998-04-09 18:00:00 60. 45. 985. 55. 985.
1998-04-10 00:00:00 60. 45. 985. 55. 985.
1998-04-10 06:00:00 60. 45. 985. 55. 985.
1998-04-10 12:00:00 65. 45. 985. 55. 985.
1998-04-10 18:00:00 70. 40. 988. 50. 988.
1998-04-11 00:00:00 70. 40. 988. 50. 988.
1998-04-11 06:00:00 65. 35. 992. 45. 992.
1998-04-11 12:00:00 65. 35. 992. 45. 992.
1998-04-11 18:00:00 65. 28. 997. 35. 997.
1998-04-12 00:00:00 65. 25. 1000. 30. 1000.
1998-04-12 06:00:00 60. 25. 1000. 30. 1000.
jtwc_sh reunion neumann
1998-04-12 12:00:00 55. 25. 1000. 30. 1000.
1998-04-12 18:00:00 50. 25. 1000. 30. 1000.
1998-04-13 00:00:00 45. 25. 1000. 30. 1000.
1998-04-13 06:00:00 45. 25. 1002. 25. 1002.
1998-04-13 12:00:00 45. 25. 1002. 25. 1002.
1998-04-13 18:00:00 40. 25. 1002. 25. 1002.
1998-04-14 00:00:00 35. 20. 1004. 20. 1004.
1998-04-14 06:00:00 35. 20. 1004. 20. 1004.
1998-04-14 12:00:00 35. 20. 1004. 20. 1004.
1998-04-14 18:00:00 30. 1005. 20. 1005.
1998-04-15 00:00:00 30. 25.
1998-04-15 06:00:00 25.
1998-04-15 12:00:00 25.
1998-04-15 18:00:00 25.
1998-04-16 00:00:00 25.
1998-04-16 06:00:00 25.
1998-04-16 12:00:00 25.
1998-04-16 18:00:00 25.

top of page Links to source data

Source Source file Format
jtwc_sh bsh321998.txt ATCF
reunion WMO-Best-Tracks.txt:Line=18344:gemma WMO (old format)
neumann tracks.sh:Storm=1134:GEMMA:BSH321998:Reunion HURDAT